sensor_id;sensor_type;location;lat;lon;timestamp;pressure;altitude;pressure_sealevel;temperature;humidity
6349;BME280;3207;42.648;23.406;2023-03-13T00:00:52;100285.47;;;7.24;nan
6349;BME280;3207;42.648;23.406;2023-03-13T00:03:19;100293.34;;;7.22;nan
6349;BME280;3207;42.648;23.406;2023-03-13T00:05:47;100281.75;;;7.12;nan
6349;BME280;3207;42.648;23.406;2023-03-13T00:08:14;100296.19;;;7.18;nan
6349;BME280;3207;42.648;23.406;2023-03-13T00:10:41;100292.16;;;7.12;nan
6349;BME280;3207;42.648;23.406;2023-03-13T00:13:08;100291.91;;;7.17;nan
6349;BME280;3207;42.648;23.406;2023-03-13T00:15:35;100287.47;;;7.19;nan
6349;BME280;3207;42.648;23.406;2023-03-13T00:18:02;100288.47;;;7.16;nan
6349;BME280;3207;42.648;23.406;2023-03-13T00:20:29;100292.22;;;7.11;nan
6349;BME280;3207;42.648;23.406;2023-03-13T00:22:57;100289.91;;;7.06;nan
6349;BME280;3207;42.648;23.406;2023-03-13T00:25:24;100297.09;;;7.01;nan
6349;BME280;3207;42.648;23.406;2023-03-13T00:27:51;100290.81;;;7.05;nan
6349;BME280;3207;42.648;23.406;2023-03-13T00:30:18;100290.81;;;7.05;nan
6349;BME280;3207;42.648;23.406;2023-03-13T00:32:45;100293.00;;;6.97;nan
6349;BME280;3207;42.648;23.406;2023-03-13T00:35:13;100282.91;;;6.91;nan
6349;BME280;3207;42.648;23.406;2023-03-13T00:37:40;100282.91;;;6.91;nan
6349;BME280;3207;42.648;23.406;2023-03-13T00:40:10;100293.16;;;6.94;nan
6349;BME280;3207;42.648;23.406;2023-03-13T00:42:37;100300.03;;;6.95;nan
6349;BME280;3207;42.648;23.406;2023-03-13T00:45:04;100297.16;;;6.84;nan
6349;BME280;3207;42.648;23.406;2023-03-13T00:47:31;100301.44;;;6.85;nan
6349;BME280;3207;42.648;23.406;2023-03-13T00:49:58;100302.44;;;6.82;nan
6349;BME280;3207;42.648;23.406;2023-03-13T00:52:25;100285.41;;;6.77;nan
6349;BME280;3207;42.648;23.406;2023-03-13T00:54:52;100295.41;;;6.84;nan
6349;BME280;3207;42.648;23.406;2023-03-13T00:57:21;100281.97;;;6.76;nan
6349;BME280;3207;42.648;23.406;2023-03-13T00:59:48;100291.34;;;6.79;nan
6349;BME280;3207;42.648;23.406;2023-03-13T01:02:15;100267.25;;;6.59;nan
6349;BME280;3207;42.648;23.406;2023-03-13T01:04:41;100297.78;;;6.72;nan
6349;BME280;3207;42.648;23.406;2023-03-13T01:07:08;100295.44;;;6.67;nan
6349;BME280;3207;42.648;23.406;2023-03-13T01:09:35;100303.47;;;6.63;nan
6349;BME280;3207;42.648;23.406;2023-03-13T01:12:02;100300.56;;;6.51;nan
6349;BME280;3207;42.648;23.406;2023-03-13T01:14:30;100296.78;;;6.41;nan
6349;BME280;3207;42.648;23.406;2023-03-13T01:16:57;100295.41;;;6.34;nan
6349;BME280;3207;42.648;23.406;2023-03-13T01:19:24;100293.88;;;6.30;nan
6349;BME280;3207;42.648;23.406;2023-03-13T01:21:50;100292.06;;;6.32;nan
6349;BME280;3207;42.648;23.406;2023-03-13T01:24:17;100290.13;;;6.36;nan
6349;BME280;3207;42.648;23.406;2023-03-13T01:26:44;100282.03;;;6.42;nan
6349;BME280;3207;42.648;23.406;2023-03-13T01:29:11;100274.94;;;6.45;nan
6349;BME280;3207;42.648;23.406;2023-03-13T01:31:39;100277.44;;;6.47;nan
6349;BME280;3207;42.648;23.406;2023-03-13T01:34:07;100276.69;;;6.45;nan
6349;BME280;3207;42.648;23.406;2023-03-13T01:36:36;100273.25;;;6.44;nan
6349;BME280;3207;42.648;23.406;2023-03-13T01:39:03;100286.81;;;6.49;nan
6349;BME280;3207;42.648;23.406;2023-03-13T01:41:30;100284.16;;;6.51;nan
6349;BME280;3207;42.648;23.406;2023-03-13T01:43:57;100283.78;;;6.41;nan
6349;BME280;3207;42.648;23.406;2023-03-13T01:46:24;100283.66;;;6.44;nan
6349;BME280;3207;42.648;23.406;2023-03-13T01:48:56;100277.69;;;6.42;nan
6349;BME280;3207;42.648;23.406;2023-03-13T01:51:26;100276.22;;;6.37;nan
6349;BME280;3207;42.648;23.406;2023-03-13T01:53:58;100274.66;;;6.34;nan
6349;BME280;3207;42.648;23.406;2023-03-13T01:56:33;100268.63;;;6.34;nan
6349;BME280;3207;42.648;23.406;2023-03-13T01:59:01;100271.50;;;6.28;nan
6349;BME280;3207;42.648;23.406;2023-03-13T02:01:30;100267.16;;;6.28;nan
6349;BME280;3207;42.648;23.406;2023-03-13T02:03:59;100267.91;;;6.30;nan
6349;BME280;3207;42.648;23.406;2023-03-13T02:06:29;100265.00;;;6.36;nan
6349;BME280;3207;42.648;23.406;2023-03-13T02:08:59;100256.47;;;6.34;nan
6349;BME280;3207;42.648;23.406;2023-03-13T02:11:31;100264.84;;;6.39;nan
6349;BME280;3207;42.648;23.406;2023-03-13T02:14:02;100264.25;;;6.34;nan
6349;BME280;3207;42.648;23.406;2023-03-13T02:16:31;100260.28;;;6.27;nan
6349;BME280;3207;42.648;23.406;2023-03-13T02:19:01;100259.69;;;6.22;nan
6349;BME280;3207;42.648;23.406;2023-03-13T02:21:38;100249.91;;;6.27;nan
6349;BME280;3207;42.648;23.406;2023-03-13T02:24:12;100246.25;;;6.31;nan
6349;BME280;3207;42.648;23.406;2023-03-13T02:26:42;100241.19;;;6.28;nan
6349;BME280;3207;42.648;23.406;2023-03-13T02:29:10;100248.22;;;6.26;nan
6349;BME280;3207;42.648;23.406;2023-03-13T02:31:43;100253.41;;;6.26;nan
6349;BME280;3207;42.648;23.406;2023-03-13T02:34:12;100247.56;;;6.22;nan
6349;BME280;3207;42.648;23.406;2023-03-13T02:36:42;100253.50;;;6.07;nan
6349;BME280;3207;42.648;23.406;2023-03-13T02:39:11;100257.63;;;6.11;nan
6349;BME280;3207;42.648;23.406;2023-03-13T02:41:39;100253.28;;;6.12;nan
6349;BME280;3207;42.648;23.406;2023-03-13T02:44:09;100247.19;;;6.13;nan
6349;BME280;3207;42.648;23.406;2023-03-13T02:46:43;100254.06;;;6.14;nan
6349;BME280;3207;42.648;23.406;2023-03-13T02:49:19;100252.59;;;6.08;nan
6349;BME280;3207;42.648;23.406;2023-03-13T02:51:46;100248.16;;;6.10;nan
6349;BME280;3207;42.648;23.406;2023-03-13T02:54:18;100243.28;;;6.04;nan
6349;BME280;3207;42.648;23.406;2023-03-13T02:56:47;100243.38;;;6.03;nan
6349;BME280;3207;42.648;23.406;2023-03-13T02:59:16;100238.94;;;6.05;nan
6349;BME280;3207;42.648;23.406;2023-03-13T03:01:43;100251.91;;;6.05;nan
6349;BME280;3207;42.648;23.406;2023-03-13T03:04:10;100251.31;;;6.00;nan
6349;BME280;3207;42.648;23.406;2023-03-13T03:06:37;100254.38;;;5.91;nan
6349;BME280;3207;42.648;23.406;2023-03-13T03:09:04;100262.00;;;5.75;nan
6349;BME280;3207;42.648;23.406;2023-03-13T03:11:31;100257.38;;;5.81;nan
6349;BME280;3207;42.648;23.406;2023-03-13T03:13:58;100268.75;;;5.79;nan
6349;BME280;3207;42.648;23.406;2023-03-13T03:16:26;100269.44;;;5.82;nan
6349;BME280;3207;42.648;23.406;2023-03-13T03:18:52;100256.53;;;5.81;nan
6349;BME280;3207;42.648;23.406;2023-03-13T03:21:19;100259.66;;;5.70;nan
6349;BME280;3207;42.648;23.406;2023-03-13T03:23:48;100253.84;;;5.65;nan
6349;BME280;3207;42.648;23.406;2023-03-13T03:26:16;100250.25;;;5.68;nan
6349;BME280;3207;42.648;23.406;2023-03-13T03:28:43;100263.31;;;5.66;nan
6349;BME280;3207;42.648;23.406;2023-03-13T06:12:42;100228.72;;;7.62;nan
6349;BME280;3207;42.648;23.406;2023-03-13T06:15:10;100227.97;;;7.90;nan
6349;BME280;3207;42.648;23.406;2023-03-13T06:17:37;100236.28;;;8.11;nan
6349;BME280;3207;42.648;23.406;2023-03-13T06:20:04;100234.22;;;8.31;nan
6349;BME280;3207;42.648;23.406;2023-03-13T06:22:31;100233.75;;;8.53;nan
6349;BME280;3207;42.648;23.406;2023-03-13T06:24:59;100239.78;;;8.82;nan
6349;BME280;3207;42.648;23.406;2023-03-13T06:27:26;100234.44;;;9.12;nan
6349;BME280;3207;42.648;23.406;2023-03-13T06:29:53;100225.09;;;9.49;nan
6349;BME280;3207;42.648;23.406;2023-03-13T06:32:20;100237.53;;;9.85;nan
6349;BME280;3207;42.648;23.406;2023-03-13T06:34:47;100234.25;;;10.21;nan
6349;BME280;3207;42.648;23.406;2023-03-13T06:37:14;100228.06;;;10.60;nan
6349;BME280;3207;42.648;23.406;2023-03-13T06:39:41;100203.84;;;10.94;nan
6349;BME280;3207;42.648;23.406;2023-03-13T06:42:09;100221.13;;;11.68;nan
6349;BME280;3207;42.648;23.406;2023-03-13T06:44:36;100233.03;;;12.42;nan
6349;BME280;3207;42.648;23.406;2023-03-13T06:47:03;100237.53;;;13.07;nan
6349;BME280;3207;42.648;23.406;2023-03-13T06:49:30;100229.06;;;13.90;nan
6349;BME280;3207;42.648;23.406;2023-03-13T06:51:57;100233.72;;;14.70;nan
6349;BME280;3207;42.648;23.406;2023-03-13T06:54:24;100240.69;;;15.30;nan
6349;BME280;3207;42.648;23.406;2023-03-13T06:56:52;100242.28;;;15.81;nan
6349;BME280;3207;42.648;23.406;2023-03-13T06:59:20;100224.38;;;15.94;nan
6349;BME280;3207;42.648;23.406;2023-03-13T07:01:47;100239.34;;;16.13;nan
6349;BME280;3207;42.648;23.406;2023-03-13T07:04:14;100238.19;;;16.34;nan
6349;BME280;3207;42.648;23.406;2023-03-13T07:06:41;100236.31;;;16.73;nan
6349;BME280;3207;42.648;23.406;2023-03-13T07:09:08;100243.72;;;16.88;nan
6349;BME280;3207;42.648;23.406;2023-03-13T07:11:35;100245.81;;;16.94;nan
6349;BME280;3207;42.648;23.406;2023-03-13T07:14:02;100245.38;;;16.89;nan
6349;BME280;3207;42.648;23.406;2023-03-13T07:16:31;100241.97;;;16.78;nan
6349;BME280;3207;42.648;23.406;2023-03-13T07:18:58;100250.19;;;17.03;nan
6349;BME280;3207;42.648;23.406;2023-03-13T07:21:24;100245.00;;;17.11;nan
6349;BME280;3207;42.648;23.406;2023-03-13T07:23:51;100244.09;;;17.02;nan
6349;BME280;3207;42.648;23.406;2023-03-13T07:26:18;100250.06;;;17.04;nan
6349;BME280;3207;42.648;23.406;2023-03-13T07:28:45;100227.50;;;17.10;nan
6349;BME280;3207;42.648;23.406;2023-03-13T07:31:13;100240.91;;;17.44;nan
6349;BME280;3207;42.648;23.406;2023-03-13T07:33:41;100242.72;;;17.61;nan
6349;BME280;3207;42.648;23.406;2023-03-13T07:36:10;100248.59;;;17.65;nan
6349;BME280;3207;42.648;23.406;2023-03-13T07:38:37;100242.50;;;17.54;nan
6349;BME280;3207;42.648;23.406;2023-03-13T07:41:04;100245.16;;;17.27;nan
6349;BME280;3207;42.648;23.406;2023-03-13T07:43:31;100251.94;;;17.12;nan
6349;BME280;3207;42.648;23.406;2023-03-13T07:46:00;100258.25;;;17.29;nan
6349;BME280;3207;42.648;23.406;2023-03-13T07:48:28;100249.66;;;18.15;nan
6349;BME280;3207;42.648;23.406;2023-03-13T07:50:57;100245.06;;;18.69;nan
6349;BME280;3207;42.648;23.406;2023-03-13T07:53:25;100259.84;;;19.96;nan
6349;BME280;3207;42.648;23.406;2023-03-13T07:55:57;100264.47;;;21.45;nan
6349;BME280;3207;42.648;23.406;2023-03-13T07:58:25;100252.31;;;23.22;nan
6349;BME280;3207;42.648;23.406;2023-03-13T08:00:53;100262.31;;;24.97;nan
6349;BME280;3207;42.648;23.406;2023-03-13T08:03:20;100267.34;;;26.53;nan
6349;BME280;3207;42.648;23.406;2023-03-13T08:05:47;100251.38;;;27.81;nan
6349;BME280;3207;42.648;23.406;2023-03-13T08:08:24;100269.03;;;29.06;nan
6349;BME280;3207;42.648;23.406;2023-03-13T08:10:51;100256.91;;;30.05;nan
6349;BME280;3207;42.648;23.406;2023-03-13T08:13:18;100264.81;;;31.05;nan
6349;BME280;3207;42.648;23.406;2023-03-13T08:15:44;100263.41;;;32.32;nan
6349;BME280;3207;42.648;23.406;2023-03-13T08:18:11;100259.25;;;33.24;nan
6349;BME280;3207;42.648;23.406;2023-03-13T08:20:38;100267.22;;;34.21;nan
6349;BME280;3207;42.648;23.406;2023-03-13T08:23:05;100267.81;;;34.70;nan
6349;BME280;3207;42.648;23.406;2023-03-13T08:25:33;100230.31;;;35.50;nan
6349;BME280;3207;42.648;23.406;2023-03-13T08:28:00;100259.44;;;36.61;nan
6349;BME280;3207;42.648;23.406;2023-03-13T08:30:27;100260.25;;;37.31;nan
6349;BME280;3207;42.648;23.406;2023-03-13T08:32:54;100267.63;;;37.74;nan
6349;BME280;3207;42.648;23.406;2023-03-13T08:35:20;100252.50;;;38.21;nan
6349;BME280;3207;42.648;23.406;2023-03-13T08:37:48;100236.25;;;38.83;nan
6349;BME280;3207;42.648;23.406;2023-03-13T08:40:15;100241.91;;;39.10;nan
6349;BME280;3207;42.648;23.406;2023-03-13T08:42:43;100248.34;;;39.94;nan
6349;BME280;3207;42.648;23.406;2023-03-13T08:45:10;100248.25;;;40.73;nan
6349;BME280;3207;42.648;23.406;2023-03-13T08:47:37;100253.91;;;40.49;nan
6349;BME280;3207;42.648;23.406;2023-03-13T08:50:05;100247.00;;;41.06;nan
6349;BME280;3207;42.648;23.406;2023-03-13T08:52:32;100247.03;;;40.79;nan
6349;BME280;3207;42.648;23.406;2023-03-13T08:54:58;100233.44;;;40.74;nan
6349;BME280;3207;42.648;23.406;2023-03-13T08:57:25;100253.09;;;41.17;nan
6349;BME280;3207;42.648;23.406;2023-03-13T08:59:53;100238.38;;;40.99;nan
6349;BME280;3207;42.648;23.406;2023-03-13T09:02:20;100243.13;;;41.57;nan
6349;BME280;3207;42.648;23.406;2023-03-13T09:04:47;100242.34;;;41.87;nan
6349;BME280;3207;42.648;23.406;2023-03-13T09:07:14;100243.47;;;41.86;nan
6349;BME280;3207;42.648;23.406;2023-03-13T09:09:42;100255.50;;;42.52;nan
6349;BME280;3207;42.648;23.406;2023-03-13T09:12:09;100244.22;;;42.71;nan
6349;BME280;3207;42.648;23.406;2023-03-13T09:14:36;100234.63;;;42.60;nan
6349;BME280;3207;42.648;23.406;2023-03-13T09:17:04;100237.56;;;42.63;nan
6349;BME280;3207;42.648;23.406;2023-03-13T09:19:32;100235.75;;;43.24;nan
6349;BME280;3207;42.648;23.406;2023-03-13T09:21:59;100223.94;;;43.67;nan
6349;BME280;3207;42.648;23.406;2023-03-13T09:24:25;100221.97;;;43.67;nan
6349;BME280;3207;42.648;23.406;2023-03-13T09:26:52;100228.47;;;43.28;nan
6349;BME280;3207;42.648;23.406;2023-03-13T09:29:20;100212.28;;;43.53;nan
6349;BME280;3207;42.648;23.406;2023-03-13T09:31:46;100218.94;;;43.17;nan
6349;BME280;3207;42.648;23.406;2023-03-13T09:34:15;100217.09;;;42.38;nan
6349;BME280;3207;42.648;23.406;2023-03-13T09:36:42;100204.75;;;40.25;nan
6349;BME280;3207;42.648;23.406;2023-03-13T09:39:08;100196.81;;;37.88;nan
6349;BME280;3207;42.648;23.406;2023-03-13T09:41:39;100185.72;;;36.96;nan
6349;BME280;3207;42.648;23.406;2023-03-13T09:44:14;100183.31;;;35.90;nan
6349;BME280;3207;42.648;23.406;2023-03-13T09:46:48;100181.09;;;35.51;nan
6349;BME280;3207;42.648;23.406;2023-03-13T09:49:34;100183.41;;;34.82;nan
6349;BME280;3207;42.648;23.406;2023-03-13T09:52:12;100175.94;;;34.57;nan
6349;BME280;3207;42.648;23.406;2023-03-13T09:54:45;100164.34;;;33.83;nan
6349;BME280;3207;42.648;23.406;2023-03-13T09:57:17;100153.88;;;33.96;nan
6349;BME280;3207;42.648;23.406;2023-03-13T09:59:50;100154.38;;;33.02;nan
6349;BME280;3207;42.648;23.406;2023-03-13T10:02:27;100144.81;;;32.29;nan
6349;BME280;3207;42.648;23.406;2023-03-13T10:05:07;100138.91;;;32.16;nan
6349;BME280;3207;42.648;23.406;2023-03-13T10:07:57;100130.59;;;31.50;nan
6349;BME280;3207;42.648;23.406;2023-03-13T10:10:33;100123.63;;;30.52;nan
6349;BME280;3207;42.648;23.406;2023-03-13T10:13:13;100125.25;;;28.77;nan
6349;BME280;3207;42.648;23.406;2023-03-13T10:15:44;100103.09;;;28.45;nan
6349;BME280;3207;42.648;23.406;2023-03-13T10:18:16;100115.56;;;28.39;nan
6349;BME280;3207;42.648;23.406;2023-03-13T10:20:47;100107.34;;;28.71;nan
6349;BME280;3207;42.648;23.406;2023-03-13T10:23:19;100101.19;;;28.82;nan
6349;BME280;3207;42.648;23.406;2023-03-13T10:25:46;100098.97;;;29.21;nan
6349;BME280;3207;42.648;23.406;2023-03-13T10:28:15;100092.56;;;29.33;nan
6349;BME280;3207;42.648;23.406;2023-03-13T10:30:46;100084.16;;;30.63;nan
6349;BME280;3207;42.648;23.406;2023-03-13T10:33:24;100076.94;;;32.80;nan
6349;BME280;3207;42.648;23.406;2023-03-13T10:36:05;100084.13;;;36.81;nan
6349;BME280;3207;42.648;23.406;2023-03-13T10:38:34;100091.09;;;39.63;nan
6349;BME280;3207;42.648;23.406;2023-03-13T10:41:26;100092.38;;;40.88;nan
6349;BME280;3207;42.648;23.406;2023-03-13T10:43:59;100098.25;;;43.02;nan
6349;BME280;3207;42.648;23.406;2023-03-13T10:46:28;100096.75;;;44.53;nan
6349;BME280;3207;42.648;23.406;2023-03-13T10:48:56;100093.88;;;44.49;nan
6349;BME280;3207;42.648;23.406;2023-03-13T10:51:33;100090.63;;;44.68;nan
6349;BME280;3207;42.648;23.406;2023-03-13T10:54:13;100099.66;;;45.76;nan
6349;BME280;3207;42.648;23.406;2023-03-13T10:56:40;100095.41;;;46.27;nan
6349;BME280;3207;42.648;23.406;2023-03-13T10:59:19;100081.97;;;46.54;nan
6349;BME280;3207;42.648;23.406;2023-03-13T11:01:47;100069.84;;;47.42;nan
6349;BME280;3207;42.648;23.406;2023-03-13T11:04:19;100064.38;;;47.61;nan
6349;BME280;3207;42.648;23.406;2023-03-13T11:06:51;100069.66;;;47.98;nan
6349;BME280;3207;42.648;23.406;2023-03-13T11:09:18;100062.16;;;45.42;nan
6349;BME280;3207;42.648;23.406;2023-03-13T11:11:48;100060.22;;;45.10;nan
6349;BME280;3207;42.648;23.406;2023-03-13T11:14:17;100059.59;;;44.71;nan
6349;BME280;3207;42.648;23.406;2023-03-13T11:16:47;100033.16;;;45.03;nan
6349;BME280;3207;42.648;23.406;2023-03-13T11:22:49;100050.72;;;45.19;nan
6349;BME280;3207;42.648;23.406;2023-03-13T11:25:20;100040.34;;;44.83;nan
6349;BME280;3207;42.648;23.406;2023-03-13T11:28:07;100040.00;;;44.23;nan
6349;BME280;3207;42.648;23.406;2023-03-13T11:30:57;100029.47;;;41.45;nan
6349;BME280;3207;42.648;23.406;2023-03-13T11:33:32;100009.38;;;38.59;nan
6349;BME280;3207;42.648;23.406;2023-03-13T11:36:05;100004.09;;;37.00;nan
6349;BME280;3207;42.648;23.406;2023-03-13T11:38:39;99996.25;;;34.08;nan
6349;BME280;3207;42.648;23.406;2023-03-13T11:41:20;99973.50;;;32.29;nan
6349;BME280;3207;42.648;23.406;2023-03-13T11:44:03;99974.31;;;30.64;nan
6349;BME280;3207;42.648;23.406;2023-03-13T11:46:39;99961.97;;;30.84;nan
6349;BME280;3207;42.648;23.406;2023-03-13T11:49:29;99964.69;;;30.11;nan
6349;BME280;3207;42.648;23.406;2023-03-13T11:52:14;99956.31;;;29.96;nan
6349;BME280;3207;42.648;23.406;2023-03-13T11:55:00;99950.69;;;30.42;nan
6349;BME280;3207;42.648;23.406;2023-03-13T11:57:31;99951.91;;;31.90;nan
6349;BME280;3207;42.648;23.406;2023-03-13T12:00:15;99948.06;;;32.89;nan
6349;BME280;3207;42.648;23.406;2023-03-13T12:02:47;99941.22;;;33.18;nan
6349;BME280;3207;42.648;23.406;2023-03-13T12:05:18;99944.69;;;33.51;nan
6349;BME280;3207;42.648;23.406;2023-03-13T12:07:51;99939.56;;;32.75;nan
6349;BME280;3207;42.648;23.406;2023-03-13T12:10:25;99935.38;;;32.09;nan
6349;BME280;3207;42.648;23.406;2023-03-13T12:13:00;99929.75;;;31.50;nan
6349;BME280;3207;42.648;23.406;2023-03-13T12:15:31;99919.31;;;30.36;nan
6349;BME280;3207;42.648;23.406;2023-03-13T12:18:02;99903.91;;;29.40;nan
6349;BME280;3207;42.648;23.406;2023-03-13T12:20:41;99903.69;;;28.41;nan
6349;BME280;3207;42.648;23.406;2023-03-13T12:23:18;99894.34;;;27.11;nan
6349;BME280;3207;42.648;23.406;2023-03-13T12:25:50;99901.06;;;26.95;nan
6349;BME280;3207;42.648;23.406;2023-03-13T12:28:24;99890.09;;;26.09;nan
6349;BME280;3207;42.648;23.406;2023-03-13T12:31:01;99877.75;;;26.08;nan
6349;BME280;3207;42.648;23.406;2023-03-13T12:33:33;99867.53;;;26.30;nan
6349;BME280;3207;42.648;23.406;2023-03-13T12:36:06;99857.72;;;25.79;nan
6349;BME280;3207;42.648;23.406;2023-03-13T12:38:38;99850.25;;;25.88;nan
6349;BME280;3207;42.648;23.406;2023-03-13T12:41:17;99849.63;;;25.86;nan
6349;BME280;3207;42.648;23.406;2023-03-13T12:43:48;99839.38;;;25.76;nan
6349;BME280;3207;42.648;23.406;2023-03-13T12:46:35;99819.38;;;25.79;nan
6349;BME280;3207;42.648;23.406;2023-03-13T12:54:55;99816.75;;;25.21;nan
6349;BME280;3207;42.648;23.406;2023-03-13T12:57:53;99812.66;;;25.12;nan
6349;BME280;3207;42.648;23.406;2023-03-13T13:00:28;99798.59;;;25.30;nan
6349;BME280;3207;42.648;23.406;2023-03-13T13:03:07;99800.19;;;24.53;nan
6349;BME280;3207;42.648;23.406;2023-03-13T13:05:36;99793.00;;;24.47;nan
6349;BME280;3207;42.648;23.406;2023-03-13T13:08:03;99782.72;;;24.31;nan
6349;BME280;3207;42.648;23.406;2023-03-13T13:10:33;99781.09;;;24.23;nan
6349;BME280;3207;42.648;23.406;2023-03-13T13:13:27;99781.03;;;23.90;nan
6349;BME280;3207;42.648;23.406;2023-03-13T13:16:00;99772.78;;;23.72;nan
6349;BME280;3207;42.648;23.406;2023-03-13T13:18:29;99782.16;;;23.55;nan
6349;BME280;3207;42.648;23.406;2023-03-13T13:21:18;99769.25;;;23.11;nan
6349;BME280;3207;42.648;23.406;2023-03-13T13:23:47;99760.13;;;22.92;nan
6349;BME280;3207;42.648;23.406;2023-03-13T13:26:48;99753.94;;;22.85;nan
6349;BME280;3207;42.648;23.406;2023-03-13T13:35:33;99734.13;;;22.66;nan
6349;BME280;3207;42.648;23.406;2023-03-13T13:38:26;99729.78;;;22.93;nan
6349;BME280;3207;42.648;23.406;2023-03-13T13:41:00;99723.72;;;23.12;nan
6349;BME280;3207;42.648;23.406;2023-03-13T13:43:30;99712.19;;;23.05;nan
6349;BME280;3207;42.648;23.406;2023-03-13T13:46:00;99695.88;;;23.28;nan
6349;BME280;3207;42.648;23.406;2023-03-13T13:48:32;99690.06;;;23.11;nan
6349;BME280;3207;42.648;23.406;2023-03-13T13:51:23;99702.28;;;22.92;nan
6349;BME280;3207;42.648;23.406;2023-03-13T13:53:53;99701.81;;;22.76;nan
6349;BME280;3207;42.648;23.406;2023-03-13T13:56:33;99692.91;;;22.69;nan
6349;BME280;3207;42.648;23.406;2023-03-13T13:59:05;99684.63;;;22.85;nan
6349;BME280;3207;42.648;23.406;2023-03-13T14:01:41;99678.06;;;22.81;nan
6349;BME280;3207;42.648;23.406;2023-03-13T14:04:16;99677.28;;;22.87;nan
6349;BME280;3207;42.648;23.406;2023-03-13T14:06:53;99661.09;;;22.54;nan
6349;BME280;3207;42.648;23.406;2023-03-13T14:09:31;99664.97;;;22.51;nan
6349;BME280;3207;42.648;23.406;2023-03-13T14:11:58;99662.69;;;22.48;nan
6349;BME280;3207;42.648;23.406;2023-03-13T14:14:25;99657.47;;;21.99;nan
6349;BME280;3207;42.648;23.406;2023-03-13T14:16:53;99665.22;;;22.22;nan
6349;BME280;3207;42.648;23.406;2023-03-13T14:19:27;99661.59;;;22.02;nan
6349;BME280;3207;42.648;23.406;2023-03-13T14:21:59;99656.63;;;21.99;nan
6349;BME280;3207;42.648;23.406;2023-03-13T14:24:26;99648.75;;;22.12;nan
6349;BME280;3207;42.648;23.406;2023-03-13T14:26:53;99653.47;;;22.16;nan
6349;BME280;3207;42.648;23.406;2023-03-13T14:29:20;99649.44;;;22.27;nan
6349;BME280;3207;42.648;23.406;2023-03-13T14:31:54;99644.97;;;22.00;nan
6349;BME280;3207;42.648;23.406;2023-03-13T14:34:22;99633.63;;;22.19;nan
6349;BME280;3207;42.648;23.406;2023-03-13T14:36:52;99622.50;;;22.43;nan
6349;BME280;3207;42.648;23.406;2023-03-13T14:39:20;99626.28;;;22.62;nan
6349;BME280;3207;42.648;23.406;2023-03-13T14:41:48;99626.28;;;22.62;nan
6349;BME280;3207;42.648;23.406;2023-03-13T14:44:21;99609.03;;;22.51;nan
6349;BME280;3207;42.648;23.406;2023-03-13T14:46:52;99612.97;;;22.62;nan
6349;BME280;3207;42.648;23.406;2023-03-13T14:49:23;99620.25;;;22.47;nan
6349;BME280;3207;42.648;23.406;2023-03-13T14:51:58;99620.81;;;22.36;nan
6349;BME280;3207;42.648;23.406;2023-03-13T14:54:28;99633.09;;;22.30;nan
6349;BME280;3207;42.648;23.406;2023-03-13T14:57:04;99600.06;;;21.97;nan
6349;BME280;3207;42.648;23.406;2023-03-13T14:59:31;99612.88;;;21.80;nan
6349;BME280;3207;42.648;23.406;2023-03-13T15:01:59;99626.19;;;21.80;nan
6349;BME280;3207;42.648;23.406;2023-03-13T15:04:55;99607.13;;;21.55;nan
6349;BME280;3207;42.648;23.406;2023-03-13T15:07:27;99611.59;;;21.48;nan
6349;BME280;3207;42.648;23.406;2023-03-13T15:10:00;99585.75;;;21.42;nan
6349;BME280;3207;42.648;23.406;2023-03-13T15:12:29;99600.50;;;21.72;nan
6349;BME280;3207;42.648;23.406;2023-03-13T15:14:57;99596.47;;;21.76;nan
6349;BME280;3207;42.648;23.406;2023-03-13T15:17:25;99604.03;;;21.51;nan
6349;BME280;3207;42.648;23.406;2023-03-13T15:19:54;99606.31;;;21.54;nan
6349;BME280;3207;42.648;23.406;2023-03-13T15:22:26;99596.00;;;21.24;nan
6349;BME280;3207;42.648;23.406;2023-03-13T15:24:53;99599.91;;;21.06;nan
6349;BME280;3207;42.648;23.406;2023-03-13T15:27:22;99616.47;;;21.08;nan
6349;BME280;3207;42.648;23.406;2023-03-13T15:29:49;99603.56;;;20.84;nan
6349;BME280;3207;42.648;23.406;2023-03-13T15:32:22;99595.59;;;20.84;nan
6349;BME280;3207;42.648;23.406;2023-03-13T15:34:51;99581.78;;;20.74;nan
6349;BME280;3207;42.648;23.406;2023-03-13T15:37:18;99594.13;;;20.67;nan
6349;BME280;3207;42.648;23.406;2023-03-13T15:39:46;99587.88;;;20.53;nan
6349;BME280;3207;42.648;23.406;2023-03-13T15:42:13;99586.69;;;20.41;nan
6349;BME280;3207;42.648;23.406;2023-03-13T15:44:40;99577.25;;;20.38;nan
6349;BME280;3207;42.648;23.406;2023-03-13T15:47:09;99580.44;;;20.34;nan
6349;BME280;3207;42.648;23.406;2023-03-13T15:49:37;99582.00;;;20.14;nan
6349;BME280;3207;42.648;23.406;2023-03-13T15:52:10;99580.91;;;20.08;nan
6349;BME280;3207;42.648;23.406;2023-03-13T15:54:39;99588.13;;;19.99;nan
6349;BME280;3207;42.648;23.406;2023-03-13T15:57:10;99588.41;;;19.90;nan
6349;BME280;3207;42.648;23.406;2023-03-13T15:59:38;99586.63;;;19.67;nan
6349;BME280;3207;42.648;23.406;2023-03-13T16:02:12;99562.09;;;19.51;nan
6349;BME280;3207;42.648;23.406;2023-03-13T16:04:39;99588.72;;;19.57;nan
6349;BME280;3207;42.648;23.406;2023-03-13T16:07:08;99587.72;;;19.58;nan
6349;BME280;3207;42.648;23.406;2023-03-13T16:09:35;99591.44;;;19.49;nan
6349;BME280;3207;42.648;23.406;2023-03-13T16:12:02;99593.66;;;19.37;nan
6349;BME280;3207;42.648;23.406;2023-03-13T16:14:30;99577.75;;;19.37;nan
6349;BME280;3207;42.648;23.406;2023-03-13T16:16:57;99584.31;;;19.27;nan
6349;BME280;3207;42.648;23.406;2023-03-13T16:19:24;99559.97;;;19.23;nan
6349;BME280;3207;42.648;23.406;2023-03-13T16:21:51;99580.53;;;19.21;nan
6349;BME280;3207;42.648;23.406;2023-03-13T16:24:18;99588.88;;;19.10;nan
6349;BME280;3207;42.648;23.406;2023-03-13T16:26:45;99580.69;;;18.97;nan
6349;BME280;3207;42.648;23.406;2023-03-13T16:29:13;99590.78;;;19.01;nan
6349;BME280;3207;42.648;23.406;2023-03-13T16:31:42;99587.88;;;18.88;nan
6349;BME280;3207;42.648;23.406;2023-03-13T16:34:09;99575.94;;;18.92;nan
6349;BME280;3207;42.648;23.406;2023-03-13T16:36:36;99572.81;;;18.58;nan
6349;BME280;3207;42.648;23.406;2023-03-13T16:39:06;99552.91;;;18.31;nan
6349;BME280;3207;42.648;23.406;2023-03-13T16:41:34;99578.13;;;18.50;nan
6349;BME280;3207;42.648;23.406;2023-03-13T16:44:01;99570.09;;;18.35;nan